Akiachak, Alaska
Current Conditions -  °F | °C
As of 4:56 AM on Monday 20 Oct 2014 (Local Time) from PFKW Reporting Station
Light Snow Light Snow  
Wind Chill: -8°   Ceiling: 2600
Heat Index: -3°   Visibility: 3mi
Dew Point: -4°   Wind: 9mph
Humidity: 92%   Direction: 360°N
Pressure: 29.2"   Gusts: NA
Location:  60.91°N, 161.44°W
Report Text: PFKW 201256Z AUTO 36008KT 3SM -SN BR FEW007 BKN026 OVC035 M03/M04 A2920 RMK AO2 SLP890 P0000 T10281039 FZRANO
Loading
Personal Weather Stations






























Interactive Weather Map
Tropical Storm Tracking
New forecast layout! Learn more

10-Day Weather Forecast

Advertisements
Track Severe Weather on mobile